Time;durP1;ratioP1;P1;durP2;ratioP2;P2;SDS_P1;SDS_P2;PMS_P1;PMS_P2;Temp;Humidity;BMP_temperature;BMP_pressure;BME280_temperature;BME280_humidity;BME280_pressure;Samples;Min_cycle;Max_cycle;Signal;HPM_P1;HPM_P2
2022/04/14 00:01:37;;;;;;;53.53;27.23;;;13.50;99.90;;;;;;4988267;28;20220;-76
2022/04/14 00:04:04;;;;;;;67.90;30.27;;;13.40;99.90;;;;;;4988060;28;20225;-75
2022/04/14 00:06:31;;;;;;;61.30;28.30;;;13.40;99.90;;;;;;4988873;28;20220;-75
2022/04/14 00:08:58;;;;;;;60.13;29.47;;;13.40;99.90;;;;;;4988858;28;20223;-74
2022/04/14 00:11:25;;;;;;;64.13;30.37;;;13.40;99.90;;;;;;4988568;28;20726;-75
2022/04/14 00:13:52;;;;;;;71.10;31.03;;;13.40;99.90;;;;;;4988634;28;20223;-74
2022/04/14 00:16:20;;;;;;;68.37;31.87;;;13.40;99.90;;;;;;4988079;28;20710;-74
2022/04/14 00:18:47;;;;;;;69.37;31.23;;;13.40;99.90;;;;;;4987963;28;20221;-75
2022/04/14 00:21:14;;;;;;;66.77;29.50;;;13.30;99.90;;;;;;4985157;28;20621;-74
2022/04/14 00:23:41;;;;;;;67.40;33.03;;;13.30;99.90;;;;;;4987958;28;20566;-75
2022/04/14 00:26:07;;;;;;;79.87;33.30;;;13.20;99.90;;;;;;4970170;28;20209;-75
2022/04/14 00:28:35;;;;;;;87.20;34.13;;;13.10;99.90;;;;;;4988222;28;20211;-75
2022/04/14 00:31:04;;;;;;;85.50;33.80;;;13.20;99.90;;;;;;4987621;28;20232;-75
2022/04/14 00:33:32;;;;;;;77.53;35.50;;;13.10;99.90;;;;;;4984385;28;20774;-76
2022/04/14 00:36:00;;;;;;;88.97;36.03;;;13.10;99.90;;;;;;4982743;28;20283;-75
2022/04/14 00:38:27;;;;;;;87.43;36.00;;;13.10;99.90;;;;;;4988344;28;20298;-75
2022/04/14 00:40:55;;;;;;;85.83;35.57;;;13.10;99.90;;;;;;4970907;28;20215;-76
2022/04/14 00:43:30;;;;;;;91.93;37.40;;;13.10;99.90;;;;;;4962107;28;20328;-76
2022/04/14 00:45:58;;;;;;;92.77;35.27;;;13.10;99.90;;;;;;4988355;28;20484;-76
2022/04/14 00:48:25;;;;;;;90.23;36.57;;;13.10;99.90;;;;;;4993692;28;20466;-76
2022/04/14 00:50:53;;;;;;;96.90;34.83;;;13.10;99.90;;;;;;4991055;28;20217;-76
2022/04/14 00:53:22;;;;;;;90.73;34.80;;;13.10;99.90;;;;;;4987822;28;20230;-76
2022/04/14 00:55:49;;;;;;;97.60;37.93;;;13.20;99.90;;;;;;4980679;28;20351;-76
2022/04/14 00:58:16;;;;;;;98.70;36.73;;;13.20;99.90;;;;;;4984249;28;20230;-76
2022/04/14 01:00:43;;;;;;;87.60;33.10;;;13.20;99.90;;;;;;4989031;28;20213;-76
2022/04/14 01:03:11;;;;;;;103.07;33.93;;;13.20;99.90;;;;;;4983637;28;20282;-76
2022/04/14 01:05:39;;;;;;;95.07;33.90;;;13.10;99.90;;;;;;4988928;28;20227;-76
2022/04/14 01:08:08;;;;;;;94.57;33.67;;;13.00;99.90;;;;;;4990535;28;20214;-76
2022/04/14 01:10:37;;;;;;;92.13;32.40;;;13.00;99.90;;;;;;4990239;28;20208;-76
2022/04/14 01:13:04;;;;;;;98.30;34.77;;;13.00;99.90;;;;;;4996452;28;20229;-76
2022/04/14 01:15:31;;;;;;;99.87;35.30;;;12.90;99.90;;;;;;4976852;28;20556;-76
2022/04/14 01:17:57;;;;;;;97.50;36.07;;;12.90;99.90;;;;;;4996541;28;20233;-76
2022/04/14 01:20:24;;;;;;;104.37;34.27;;;12.80;99.90;;;;;;4968709;28;20227;-76
2022/04/14 01:22:56;;;;;;;99.17;35.07;;;12.90;99.90;;;;;;4985265;28;20238;-76
2022/04/14 01:25:25;;;;;;;99.47;33.87;;;12.80;99.90;;;;;;4985993;28;20662;-76
2022/04/14 01:27:52;;;;;;;104.20;34.63;;;12.80;99.90;;;;;;4994995;28;20193;-76
2022/04/14 01:30:20;;;;;;;110.87;34.23;;;12.80;99.90;;;;;;4987760;28;20213;-76
2022/04/14 01:32:47;;;;;;;109.07;35.60;;;12.70;99.90;;;;;;4965316;28;20742;-74
2022/04/14 01:35:13;;;;;;;107.87;34.97;;;12.70;99.90;;;;;;4986978;28;20205;-76
2022/04/14 01:37:41;;;;;;;112.43;35.53;;;12.70;99.90;;;;;;4987147;28;20228;-76
2022/04/14 01:40:09;;;;;;;122.37;37.87;;;12.70;99.90;;;;;;4988411;28;20629;-76
2022/04/14 01:42:38;;;;;;;119.23;37.13;;;12.70;99.90;;;;;;4987424;28;20228;-76
2022/04/14 01:45:05;;;;;;;113.23;35.13;;;12.60;99.90;;;;;;4989007;28;20203;-75
2022/04/14 01:47:32;;;;;;;111.83;36.63;;;12.60;99.90;;;;;;4984848;28;20621;-74
2022/04/14 01:49:59;;;;;;;106.37;36.50;;;12.60;99.90;;;;;;4987015;28;20219;-75
2022/04/14 01:52:26;;;;;;;117.03;38.53;;;12.60;99.90;;;;;;4984027;28;20256;-76
2022/04/14 01:54:53;;;;;;;111.77;38.13;;;12.70;99.90;;;;;;4987930;28;20236;-75
2022/04/14 01:57:20;;;;;;;129.30;39.37;;;12.70;99.90;;;;;;4988322;28;20220;-75
2022/04/14 01:59:48;;;;;;;125.73;40.03;;;12.70;99.90;;;;;;4989948;28;20541;-75
2022/04/14 02:02:15;;;;;;;121.97;37.97;;;12.60;99.90;;;;;;4987421;28;20239;-74
2022/04/14 02:04:43;;;;;;;138.90;42.03;;;12.70;99.90;;;;;;4988252;28;20235;-75
2022/04/14 02:07:10;;;;;;;135.23;41.43;;;12.70;99.90;;;;;;4969932;28;20215;-75
2022/04/14 02:09:37;;;;;;;142.47;40.00;;;12.70;99.90;;;;;;4979515;28;20317;-75
2022/04/14 02:12:05;;;;;;;136.93;40.97;;;12.70;99.90;;;;;;4986986;28;20228;-75
2022/04/14 02:14:32;;;;;;;143.93;42.07;;;12.60;99.90;;;;;;4987285;28;20680;-75
2022/04/14 02:17:00;;;;;;;143.67;41.70;;;12.70;99.90;;;;;;4987863;28;20212;-75
2022/04/14 02:19:27;;;;;;;146.37;43.73;;;12.70;99.90;;;;;;4993086;28;20210;-75
2022/04/14 02:21:54;;;;;;;137.37;41.63;;;12.60;99.90;;;;;;4991048;28;20227;-74
2022/04/14 02:24:22;;;;;;;148.33;42.87;;;12.60;99.90;;;;;;4983887;28;20476;-75
2022/04/14 02:26:49;;;;;;;150.83;41.80;;;12.70;99.90;;;;;;4966180;28;20220;-74
2022/04/14 02:29:16;;;;;;;155.43;44.10;;;12.70;99.90;;;;;;4990350;28;20220;-74
2022/04/14 02:31:43;;;;;;;148.97;43.63;;;12.60;99.90;;;;;;4994841;28;20242;-75
2022/04/14 02:34:12;;;;;;;155.53;44.17;;;12.60;99.90;;;;;;4991360;28;20215;-74
2022/04/14 02:36:39;;;;;;;164.53;44.73;;;12.70;99.90;;;;;;4998515;28;20203;-75
2022/04/14 02:39:06;;;;;;;153.17;44.30;;;12.70;99.90;;;;;;5006053;28;20302;-75
2022/04/14 02:41:33;;;;;;;152.27;43.73;;;12.70;99.90;;;;;;4990975;28;20229;-74
2022/04/14 02:43:59;;;;;;;150.47;42.37;;;12.80;99.90;;;;;;5009750;28;20265;-75
2022/04/14 02:46:26;;;;;;;168.90;44.90;;;12.80;99.90;;;;;;4991265;28;20216;-75
2022/04/14 02:48:53;;;;;;;154.03;42.17;;;12.90;99.90;;;;;;4992640;28;20207;-76
2022/04/14 02:51:21;;;;;;;157.17;43.80;;;12.90;99.90;;;;;;4986381;28;20709;-75
2022/04/14 02:53:48;;;;;;;156.03;42.63;;;12.90;99.90;;;;;;4990953;28;20224;-75
2022/04/14 02:56:15;;;;;;;173.40;43.17;;;12.90;99.90;;;;;;4991415;28;20228;-75
2022/04/14 02:58:42;;;;;;;148.23;42.67;;;12.80;99.90;;;;;;4991189;28;20258;-76
2022/04/14 03:01:09;;;;;;;142.77;43.50;;;12.80;99.90;;;;;;4987118;28;21001;-75
2022/04/14 03:03:36;;;;;;;167.63;46.87;;;12.80;99.90;;;;;;4986852;28;20216;-75
2022/04/14 03:06:03;;;;;;;164.10;46.67;;;12.80;99.90;;;;;;4991735;28;20227;-75
2022/04/14 03:08:31;;;;;;;159.20;44.57;;;12.80;99.90;;;;;;4994499;28;20205;-75
2022/04/14 03:10:58;;;;;;;156.47;44.73;;;12.70;99.90;;;;;;4978010;28;20244;-75
2022/04/14 03:13:25;;;;;;;174.03;48.80;;;12.70;99.90;;;;;;4995196;28;20240;-75
2022/04/14 03:15:51;;;;;;;166.53;47.20;;;12.70;99.90;;;;;;4976054;28;20275;-75
2022/04/14 03:18:19;;;;;;;174.30;48.20;;;12.70;99.90;;;;;;4997362;28;20320;-74
2022/04/14 03:20:46;;;;;;;183.20;47.40;;;12.70;99.90;;;;;;4994913;28;20315;-75
2022/04/14 03:23:13;;;;;;;194.00;47.10;;;12.70;99.90;;;;;;4995881;28;20255;-75
2022/04/14 03:25:41;;;;;;;174.27;46.17;;;12.70;99.90;;;;;;4992779;28;20208;-75
2022/04/14 03:28:08;;;;;;;196.67;48.83;;;12.70;99.90;;;;;;4991892;28;20208;-75
2022/04/14 03:30:35;;;;;;;183.40;47.20;;;12.70;99.90;;;;;;4992602;28;20235;-75
2022/04/14 03:33:02;;;;;;;194.53;48.83;;;12.70;99.90;;;;;;5538446;22;20383;-75
2022/04/14 03:35:29;;;;;;;179.30;47.13;;;12.70;99.90;;;;;;5030574;28;20217;-76
2022/04/14 03:37:56;;;;;;;177.00;48.23;;;12.70;99.90;;;;;;5025296;28;20238;-76
2022/04/14 03:40:23;;;;;;;191.97;46.87;;;12.70;99.90;;;;;;5027586;28;20294;-76
2022/04/14 03:42:51;;;;;;;210.27;48.10;;;12.70;99.90;;;;;;5029182;28;20238;-75
2022/04/14 03:45:18;;;;;;;253.27;50.93;;;;;;;;;;5037615;22;20230;-87
2022/04/14 03:47:45;;;;;;;188.47;45.20;;;12.50;99.90;;;;;;4998035;28;20227;-87
2022/04/14 03:50:12;;;;;;;207.57;47.33;;;12.50;99.90;;;;;;4999125;28;20611;-87
2022/04/14 03:52:39;;;;;;;211.33;49.57;;;12.50;99.90;;;;;;5015177;28;20190;-87
2022/04/14 03:55:07;;;;;;;206.17;48.90;;;12.50;99.90;;;;;;4997588;28;20240;-85
2022/04/14 03:57:34;;;;;;;194.50;50.47;;;12.40;99.90;;;;;;5001333;28;20234;-88
2022/04/14 04:00:04;;;;;;;210.83;52.33;;;12.50;99.90;;;;;;5001990;28;20204;-87
2022/04/14 04:02:31;;;;;;;201.17;52.07;;;12.40;99.90;;;;;;5017904;28;20211;-86
2022/04/14 04:04:58;;;;;;;234.63;54.20;;;12.40;99.90;;;;;;4999094;28;20225;-86
2022/04/14 04:07:25;;;;;;;217.30;51.87;;;12.40;99.90;;;;;;4980813;28;20228;-86
2022/04/14 04:09:52;;;;;;;199.17;49.60;;;12.40;99.90;;;;;;4995562;28;20221;-87
2022/04/14 04:12:21;;;;;;;217.43;51.23;;;12.40;99.90;;;;;;4996530;28;20271;-87
2022/04/14 04:14:49;;;;;;;225.97;51.57;;;12.30;99.90;;;;;;4997638;28;20268;-87
2022/04/14 04:17:17;;;;;;;212.83;49.53;;;12.40;99.90;;;;;;4988047;28;20234;-87
2022/04/14 04:20:20;;;;;;;196.07;47.40;;;12.40;99.90;;;;;;5025106;28;20670;-87
2022/04/14 04:22:47;;;;;;;233.40;51.47;;;12.40;99.90;;;;;;5030988;28;20285;-87
2022/04/14 04:25:14;;;;;;;216.10;51.13;;;12.40;99.90;;;;;;5017511;28;20203;-86
2022/04/14 04:27:41;;;;;;;226.87;52.17;;;12.40;99.90;;;;;;5017314;28;20237;-87
2022/04/14 04:30:09;;;;;;;216.50;52.17;;;12.40;99.90;;;;;;5018885;28;20578;-87
2022/04/14 04:33:07;;;;;;;211.83;50.63;;;12.40;99.90;;;;;;5027017;28;20193;-88
2022/04/14 04:35:35;;;;;;;270.10;53.20;;;12.50;99.90;;;;;;5019293;28;20193;-88
2022/04/14 04:38:02;;;;;;;220.97;50.70;;;12.50;99.90;;;;;;5036290;28;20291;-88
2022/04/14 04:40:29;;;;;;;228.53;48.23;;;;;;;;;;5036498;28;20191;-86
2022/04/14 04:42:56;;;;;;;246.60;52.20;;;12.40;99.90;;;;;;5015822;28;20183;-83
2022/04/14 04:45:23;;;;;;;238.23;51.57;;;12.40;99.90;;;;;;5016090;28;20375;-84
2022/04/14 04:47:50;;;;;;;220.03;49.87;;;12.40;99.90;;;;;;5033834;28;20382;-84
2022/04/14 04:50:18;;;;;;;217.80;50.27;;;12.40;99.90;;;;;;5033446;28;20185;-84
2022/04/14 04:52:45;;;;;;;254.23;53.03;;;12.40;99.90;;;;;;5020862;28;20184;-83
2022/04/14 04:55:13;;;;;;;246.67;49.77;;;12.40;99.90;;;;;;5031776;28;20192;-83
2022/04/14 04:57:40;;;;;;;236.93;51.90;;;12.40;99.90;;;;;;5031907;28;20231;-82
2022/04/14 05:00:08;;;;;;;244.97;53.33;;;12.30;99.90;;;;;;5032032;28;20225;-82
2022/04/14 05:02:35;;;;;;;257.67;51.63;;;12.30;99.90;;;;;;5032373;28;20187;-84
2022/04/14 05:05:03;;;;;;;263.37;56.47;;;12.40;99.90;;;;;;5031077;28;20208;-82
2022/04/14 05:07:33;;;;;;;249.60;53.67;;;12.40;99.90;;;;;;5032862;28;20211;-82
2022/04/14 05:10:00;;;;;;;244.33;53.87;;;12.40;99.90;;;;;;5015498;28;20216;-85
2022/04/14 05:12:27;;;;;;;241.03;55.30;;;12.50;99.90;;;;;;5018406;28;20260;-86
2022/04/14 05:15:02;;;;;;;220.13;53.33;;;12.50;99.90;;;;;;5017637;28;20201;-87
2022/04/14 05:17:31;;;;;;;237.30;53.50;;;12.50;99.90;;;;;;5034215;28;20245;-86
2022/04/14 05:19:59;;;;;;;236.17;52.43;;;12.50;99.90;;;;;;5033841;28;20207;-86
2022/04/14 05:22:26;;;;;;;211.10;50.27;;;12.50;99.90;;;;;;5032923;28;20268;-86
2022/04/14 05:24:54;;;;;;;264.83;52.00;;;12.50;99.90;;;;;;5032183;28;20230;-86
2022/04/14 05:27:21;;;;;;;256.00;52.20;;;12.80;99.90;;;;;;5015598;28;20207;-87
2022/04/14 05:29:48;;;;;;;222.63;50.63;;;12.60;99.90;;;;;;5033605;28;20185;-86
2022/04/14 05:32:17;;;;;;;223.90;53.40;;;12.60;99.90;;;;;;5015639;28;20201;-87
2022/04/14 05:34:47;;;;;;;256.50;52.10;;;12.60;99.90;;;;;;5032095;28;20262;-84
2022/04/14 05:37:16;;;;;;;239.23;50.13;;;12.60;99.90;;;;;;5015779;28;20224;-86
2022/04/14 05:39:43;;;;;;;250.30;48.37;;;12.60;99.90;;;;;;5032297;28;20219;-85
2022/04/14 05:42:34;;;;;;;232.03;49.00;;;12.70;99.90;;;;;;5030685;28;20188;-86
2022/04/14 05:45:01;;;;;;;220.27;51.43;;;12.70;99.90;;;;;;5023307;28;20189;-85
2022/04/14 05:47:28;;;;;;;245.10;49.60;;;12.80;99.90;;;;;;5030076;28;20212;-86
2022/04/14 05:49:55;;;;;;;220.67;49.60;;;12.80;99.90;;;;;;5026600;28;20203;-86
2022/04/14 05:52:23;;;;;;;234.33;50.00;;;12.80;99.90;;;;;;5017776;28;20189;-86
2022/04/14 05:54:51;;;;;;;226.10;51.73;;;12.90;99.90;;;;;;5023046;28;20198;-85
2022/04/14 05:57:22;;;;;;;240.80;50.03;;;13.00;99.90;;;;;;5005977;28;20262;-88
2022/04/14 05:59:52;;;;;;;234.43;48.00;;;13.00;99.90;;;;;;5012363;28;20327;-89
2022/04/14 06:02:19;;;;;;;221.20;48.30;;;13.00;99.90;;;;;;4991201;28;20208;-87
2022/04/14 06:04:46;;;;;;;229.03;49.80;;;13.10;99.90;;;;;;4994730;28;20295;-87
2022/04/14 06:07:13;;;;;;;186.67;47.40;;;13.10;99.90;;;;;;5007628;28;20228;-86
2022/04/14 06:09:41;;;;;;;176.83;47.50;;;13.20;99.90;;;;;;4997278;28;20220;-85
2022/04/14 06:12:09;;;;;;;199.17;48.63;;;13.30;99.90;;;;;;5015182;28;20224;-86
2022/04/14 06:14:37;;;;;;;214.10;50.67;;;13.40;99.90;;;;;;5000910;28;20216;-85
2022/04/14 06:17:08;;;;;;;224.63;50.80;;;13.50;99.90;;;;;;5001426;28;20239;-85
2022/04/14 06:19:38;;;;;;;233.70;50.93;;;13.50;99.90;;;;;;5010511;28;20225;-86
2022/04/14 06:22:05;;;;;;;236.37;48.37;;;13.50;99.90;;;;;;5016922;28;20260;-86
2022/04/14 06:24:32;;;;;;;240.93;49.97;;;13.60;99.90;;;;;;5012880;28;20237;-87
2022/04/14 06:27:01;;;;;;;226.50;48.53;;;13.70;99.90;;;;;;5004169;28;20220;-85
2022/04/14 06:29:28;;;;;;;212.37;48.43;;;13.60;99.90;;;;;;5000108;28;20215;-87
2022/04/14 06:31:55;;;;;;;212.20;45.60;;;13.70;99.90;;;;;;4998733;28;20224;-86
2022/04/14 06:34:24;;;;;;;171.47;44.47;;;13.80;99.90;;;;;;5000305;28;20209;-86
2022/04/14 06:36:51;;;;;;;184.47;43.77;;;13.90;99.90;;;;;;5018082;28;20208;-86
2022/04/14 06:39:18;;;;;;;165.90;43.90;;;13.90;99.90;;;;;;5012829;28;20232;-87
2022/04/14 06:41:45;;;;;;;146.07;43.73;;;14.00;99.90;;;;;;5003938;28;20209;-86
2022/04/14 06:44:12;;;;;;;147.13;42.33;;;14.10;99.90;;;;;;5007384;28;20214;-87
2022/04/14 06:46:39;;;;;;;126.67;42.07;;;14.20;99.90;;;;;;5016184;28;20241;-86
2022/04/14 06:49:06;;;;;;;112.70;39.80;;;14.30;99.90;;;;;;5001828;28;20212;-88
2022/04/14 06:51:35;;;;;;;127.80;41.30;;;14.40;99.90;;;;;;5017244;28;20210;-86
2022/04/14 06:54:03;;;;;;;121.67;42.23;;;;;;;;;;5022654;28;20236;-86
2022/04/14 06:56:35;;;;;;;114.77;41.00;;;14.50;99.90;;;;;;5026758;28;20213;-85
2022/04/14 06:59:02;;;;;;;98.53;40.33;;;;;;;;;;5001143;28;20317;-87
2022/04/14 07:01:29;;;;;;;101.00;41.43;;;14.70;99.90;;;;;;5021038;28;20268;-87
2022/04/14 07:03:57;;;;;;;99.53;44.03;;;15.10;99.90;;;;;;5017784;28;20203;-86
2022/04/14 07:06:23;;;;;;;90.63;41.23;;;15.30;99.90;;;;;;5012454;28;20207;-85
2022/04/14 07:08:52;;;;;;;77.17;39.37;;;15.50;99.90;;;;;;5002493;28;20282;-87
2022/04/14 07:11:19;;;;;;;61.73;35.20;;;16.10;99.90;;;;;;5013123;28;20265;-88
2022/04/14 07:13:46;;;;;;;58.13;35.47;;;17.00;99.90;;;;;;4996721;28;20214;-87
2022/04/14 07:16:13;;;;;;;48.30;33.77;;;17.20;99.90;;;;;;5001448;28;20280;-87
2022/04/14 07:18:40;;;;;;;54.53;31.83;;;18.00;99.90;;;;;;5012096;28;20240;-84
2022/04/14 07:21:07;;;;;;;47.20;31.37;;;18.90;99.90;;;;;;5010065;28;20779;-86
2022/04/14 07:23:35;;;;;;;38.50;28.93;;;19.80;99.90;;;;;;5013757;28;20316;-88
2022/04/14 07:26:04;;;;;;;37.43;28.50;;;20.40;99.90;;;;;;5016793;28;20203;-87
2022/04/14 07:28:32;;;;;;;41.03;29.33;;;20.70;99.90;;;;;;4997404;28;20317;-87
2022/04/14 07:31:01;;;;;;;35.07;26.53;;;21.10;99.90;;;;;;5001540;28;20214;-87
2022/04/14 07:33:34;;;;;;;34.40;26.37;;;21.70;99.90;;;;;;5025086;28;20774;-87
2022/04/14 07:36:01;;;;;;;33.27;26.10;;;22.40;99.90;;;;;;5017219;28;20741;-88
2022/04/14 07:38:28;;;;;;;27.37;21.50;;;23.10;99.90;;;;;;4996310;28;20234;-87
2022/04/14 07:40:56;;;;;;;26.27;20.73;;;24.00;99.90;;;;;;5015015;28;20216;-87
2022/04/14 07:43:24;;;;;;;27.57;22.37;;;24.40;99.90;;;;;;4998648;28;20282;-88
2022/04/14 07:45:51;;;;;;;24.80;21.03;;;24.60;99.90;;;;;;5002700;28;20309;-87
2022/04/14 07:48:21;;;;;;;25.50;21.73;;;24.60;99.90;;;;;;5017950;28;20304;-88
2022/04/14 07:50:48;;;;;;;25.47;21.63;;;25.00;99.90;;;;;;5000895;28;20210;-88
2022/04/14 07:53:16;;;;;;;27.70;21.63;;;25.20;99.90;;;;;;5026901;28;20210;-88
2022/04/14 07:55:43;;;;;;;29.13;22.40;;;25.20;99.90;;;;;;5025626;28;20214;-87
2022/04/14 07:58:10;;;;;;;26.80;22.47;;;24.90;99.90;;;;;;5007736;28;20220;-87
2022/04/14 08:00:40;;;;;;;26.40;21.87;;;24.70;99.90;;;;;;4985492;28;20234;-87
2022/04/14 08:03:09;;;;;;;28.05;22.73;;;24.90;99.90;;;;;;5005488;28;20210;-88
2022/04/14 08:05:37;;;;;;;29.35;23.58;;;25.20;99.90;;;;;;5004634;28;20242;-88
2022/04/14 08:08:05;;;;;;;27.90;24.57;;;25.50;99.90;;;;;;5013380;28;20253;-89
2022/04/14 08:10:32;;;;;;;31.83;25.07;;;25.50;99.90;;;;;;4998804;28;20237;-88
2022/04/14 08:12:59;;;;;;;32.47;25.95;;;25.50;99.90;;;;;;5001396;28;20301;-88
2022/04/14 08:15:26;;;;;;;31.77;25.27;;;25.60;99.90;;;;;;5011566;28;20214;-86
2022/04/14 08:17:55;;;;;;;32.53;26.42;;;25.60;99.90;;;;;;5013354;28;20284;-85
2022/04/14 08:20:23;;;;;;;31.23;26.92;;;25.70;99.90;;;;;;5009915;28;20314;-85
2022/04/14 08:22:52;;;;;;;34.33;27.67;;;25.80;99.90;;;;;;4992057;28;20216;-85
2022/04/14 08:25:21;;;;;;;32.35;27.52;;;25.90;99.90;;;;;;5002905;28;20210;-84
2022/04/14 08:27:48;;;;;;;32.05;27.77;;;25.80;99.90;;;;;;5005384;28;20230;-85
2022/04/14 08:30:16;;;;;;;32.00;27.33;;;25.90;99.90;;;;;;4992061;28;20671;-85
2022/04/14 08:32:45;;;;;;;36.47;30.27;;;26.10;99.90;;;;;;5013904;28;20268;-84
2022/04/14 08:35:14;;;;;;;39.75;29.88;;;26.30;99.90;;;;;;5006187;28;20214;-86
2022/04/14 08:37:42;;;;;;;39.30;31.80;;;26.50;99.90;;;;;;4999161;28;20421;-84
2022/04/14 08:40:11;;;;;;;44.60;33.43;;;26.10;99.90;;;;;;5014178;28;20226;-84
2022/04/14 08:42:39;;;;;;;46.80;35.20;;;25.60;99.90;;;;;;5013181;28;20565;-84
2022/04/14 08:45:09;;;;;;;45.60;33.80;;;24.80;99.90;;;;;;5010861;28;20220;-83
2022/04/14 08:47:37;;;;;;;45.97;34.53;;;24.10;99.90;;;;;;5015375;28;20236;-84
2022/04/14 08:50:05;;;;;;;47.07;34.07;;;23.60;99.90;;;;;;4996633;28;20212;-85
2022/04/14 08:52:35;;;;;;;42.73;34.10;;;23.10;99.90;;;;;;5017081;28;20216;-85
2022/04/14 08:55:04;;;;;;;42.30;31.63;;;23.00;99.90;;;;;;5011936;28;20199;-85
2022/04/14 08:57:35;;;;;;;46.23;34.87;;;22.90;99.90;;;;;;4997810;28;20234;-85
2022/04/14 09:00:08;;;;;;;48.33;35.77;;;22.70;99.90;;;;;;5026324;28;20227;-84
2022/04/14 09:02:54;;;;;;;51.93;36.67;;;22.30;99.90;;;;;;5023136;28;20267;-85
2022/04/14 09:05:21;;;;;;;54.90;39.33;;;21.80;99.90;;;;;;5016757;28;20206;-84
2022/04/14 09:07:50;;;;;;;51.93;38.73;;;21.60;99.90;;;;;;5007704;28;21001;-84
2022/04/14 09:10:18;;;;;;;60.10;40.27;;;21.50;99.90;;;;;;5006750;28;20245;-84
2022/04/14 09:12:48;;;;;;;55.97;37.63;;;21.30;99.90;;;;;;5004037;28;20221;-84
2022/04/14 09:15:16;;;;;;;50.47;36.73;;;21.10;99.90;;;;;;5023633;28;20210;-84
2022/04/14 09:17:43;;;;;;;48.83;36.57;;;21.20;99.90;;;;;;5025787;28;20232;-84
2022/04/14 09:20:31;;;;;;;56.43;37.87;;;21.30;99.90;;;;;;5014584;28;20273;-84
2022/04/14 09:23:15;;;;;;;48.93;34.97;;;21.30;99.90;;;;;;5006297;28;20215;-84
2022/04/14 09:25:43;;;;;;;44.77;33.37;;;21.40;99.90;;;;;;5017281;28;20213;-84
2022/04/14 09:28:11;;;;;;;45.07;34.00;;;21.80;99.90;;;;;;5007383;28;20340;-84
2022/04/14 09:30:38;;;;;;;42.73;34.23;;;22.30;99.90;;;;;;5021241;28;20231;-84
2022/04/14 09:33:05;;;;;;;43.30;32.50;;;22.40;99.90;;;;;;5020023;28;20199;-84
2022/04/14 09:35:37;;;;;;;43.27;31.07;;;22.20;99.90;;;;;;5017329;28;20209;-84
2022/04/14 09:38:13;;;;;;;38.93;30.47;;;21.70;99.90;;;;;;5005929;28;20226;-84
2022/04/14 09:40:43;;;;;;;43.20;30.33;;;21.30;99.90;;;;;;5014286;28;20241;-83
2022/04/14 09:43:10;;;;;;;41.37;31.73;;;20.90;99.90;;;;;;5000547;28;20267;-84
2022/04/14 09:45:37;;;;;;;44.63;30.67;;;20.40;99.90;;;;;;5012480;28;20220;-84
2022/04/14 09:48:05;;;;;;;38.30;29.20;;;20.00;99.90;;;;;;5013235;28;20231;-84
2022/04/14 09:50:35;;;;;;;39.80;28.67;;;19.80;99.90;;;;;;5008216;28;20211;-84
2022/04/14 09:53:07;;;;;;;35.27;24.70;;;19.70;99.90;;;;;;4995298;28;20861;-84
2022/04/14 09:55:37;;;;;;;40.87;27.50;;;19.50;99.90;;;;;;5014759;28;20195;-84
2022/04/14 09:58:11;;;;;;;40.57;25.17;;;19.10;99.90;;;;;;5013168;28;20401;-84
2022/04/14 10:00:42;;;;;;;36.93;26.30;;;18.90;99.90;;;;;;5013404;28;20232;-83
2022/04/14 10:03:12;;;;;;;33.10;22.63;;;18.70;99.90;;;;;;5007929;28;20209;-84
2022/04/14 10:05:40;;;;;;;35.17;24.17;;;18.50;99.90;;;;;;4997784;28;20218;-84
2022/04/14 10:08:08;;;;;;;32.27;23.20;;;18.40;99.90;;;;;;5005931;28;20740;-84
2022/04/14 10:10:38;;;;;;;29.10;21.03;;;18.30;99.90;;;;;;5014196;28;20206;-84
2022/04/14 10:13:14;;;;;;;30.60;21.33;;;18.50;99.90;;;;;;5013944;28;20217;-82
2022/04/14 10:15:42;;;;;;;32.93;21.53;;;18.60;99.90;;;;;;5015923;28;20252;-82
2022/04/14 10:18:11;;;;;;;30.00;21.60;;;18.70;99.90;;;;;;5010358;28;20239;-82
2022/04/14 10:20:39;;;;;;;29.97;20.80;;;18.70;99.90;;;;;;4996606;28;20236;-82
2022/04/14 10:23:08;;;;;;;31.60;21.17;;;18.60;99.90;;;;;;5011447;28;20209;-82
2022/04/14 10:25:37;;;;;;;27.10;19.90;;;18.60;99.90;;;;;;5008971;28;20230;-83
2022/04/14 10:28:13;;;;;;;31.37;22.10;;;18.50;99.90;;;;;;4992030;28;20571;-81
2022/04/14 10:30:46;;;;;;;29.27;20.63;;;18.40;99.90;;;;;;4993169;28;20202;-81
2022/04/14 10:33:38;;;;;;;27.23;19.10;;;18.40;99.90;;;;;;4989501;28;20236;-82
2022/04/14 10:36:08;;;;;;;26.63;20.03;;;18.90;99.90;;;;;;5020056;28;20205;-83
2022/04/14 10:38:43;;;;;;;25.03;19.80;;;19.50;99.90;;;;;;5023495;28;20234;-82
2022/04/14 10:41:21;;;;;;;24.03;17.47;;;20.10;99.90;;;;;;5002679;28;20255;-82
2022/04/14 10:43:49;;;;;;;21.93;16.47;;;20.40;99.90;;;;;;5015170;28;20451;-82
2022/04/14 10:46:17;;;;;;;23.30;17.07;;;20.50;99.90;;;;;;4998467;28;20269;-82
2022/04/14 10:48:45;;;;;;;22.07;16.17;;;20.40;99.90;;;;;;5012815;28;20232;-82
2022/04/14 10:51:24;;;;;;;18.70;14.60;;;20.30;99.90;;;;;;5014835;28;20207;-84
2022/04/14 10:53:57;;;;;;;23.23;16.50;;;20.40;99.90;;;;;;5007251;28;20242;-84
2022/04/14 10:56:50;;;;;;;21.13;15.23;;;20.30;99.90;;;;;;5012281;28;20211;-83
2022/04/14 10:59:19;;;;;;;19.57;15.13;;;20.30;99.90;;;;;;4996504;28;20213;-83
2022/04/14 11:01:57;;;;;;;20.50;14.47;;;20.20;99.90;;;;;;5005798;28;20221;-83
2022/04/14 11:04:27;;;;;;;16.23;12.07;;;20.20;99.90;;;;;;5000800;28;20213;-83
2022/04/14 11:06:57;;;;;;;18.57;13.70;;;20.10;99.90;;;;;;5006772;28;20805;-82
2022/04/14 11:09:59;;;;;;;20.53;15.20;;;20.00;99.90;;;;;;5014104;28;20289;-83
2022/04/14 11:12:32;;;;;;;15.23;11.97;;;19.70;99.90;;;;;;4990893;28;20214;-84
2022/04/14 11:14:59;;;;;;;14.57;12.00;;;19.70;99.90;;;;;;5013106;28;20246;-83
2022/04/14 11:18:03;;;;;;;16.97;13.70;;;19.70;99.90;;;;;;5009448;28;20310;-83
2022/04/14 11:20:58;;;;;;;14.97;11.90;;;19.90;99.90;;;;;;4998537;28;20287;-85
2022/04/14 11:23:28;;;;;;;15.07;11.20;;;20.00;99.90;;;;;;5000513;28;20207;-85
2022/04/14 11:26:06;;;;;;;18.10;13.90;;;21.20;99.90;;;;;;5012537;28;20650;-83
2022/04/14 11:28:36;;;;;;;21.67;14.10;;;20.40;99.90;;;;;;5011337;28;20240;-84
2022/04/14 11:31:05;;;;;;;10.67;7.43;;;20.40;99.90;;;;;;5012786;28;20221;-83
2022/04/14 11:33:37;;;;;;;15.23;10.83;;;20.40;99.90;;;;;;5011000;28;20605;-85
2022/04/14 11:36:15;;;;;;;8.27;6.63;;;20.30;99.90;;;;;;5015923;28;20227;-86
2022/04/14 11:38:54;;;;;;;11.33;7.57;;;20.20;99.90;;;;;;5004530;28;20246;-84
2022/04/14 11:41:41;;;;;;;11.17;7.93;;;19.90;99.90;;;;;;5008022;28;20676;-84
2022/04/14 11:44:12;;;;;;;11.17;9.40;;;19.80;99.90;;;;;;5008289;28;20276;-85
2022/04/14 11:46:41;;;;;;;15.17;9.67;;;19.50;99.90;;;;;;5010633;28;20222;-85
2022/04/14 11:49:10;;;;;;;12.40;9.40;;;19.50;99.90;;;;;;4995901;28;20565;-84
2022/04/14 11:51:45;;;;;;;13.23;8.87;;;19.40;99.90;;;;;;4997949;28;20813;-85
2022/04/14 11:54:13;;;;;;;10.07;7.60;;;19.30;99.90;;;;;;5014991;28;20583;-85
2022/04/14 11:56:40;;;;;;;9.47;6.73;;;19.40;99.90;;;;;;5004808;28;20378;-86
2022/04/14 11:59:11;;;;;;;11.23;8.20;;;19.30;99.90;;;;;;5012082;28;20752;-86
2022/04/14 12:01:49;;;;;;;13.67;9.07;;;19.30;99.90;;;;;;5014385;28;20218;-85
2022/04/14 12:04:17;;;;;;;12.50;8.73;;;19.30;99.90;;;;;;5012790;28;20297;-86
2022/04/14 12:06:54;;;;;;;13.17;9.57;;;19.40;99.90;;;;;;5011425;28;20309;-86
2022/04/14 12:09:24;;;;;;;11.07;7.53;;;19.60;99.90;;;;;;5004315;28;20228;-87
2022/04/14 12:11:52;;;;;;;11.73;8.80;;;19.80;99.90;;;;;;4988964;28;20236;-86
2022/04/14 12:14:22;;;;;;;12.23;8.40;;;20.20;99.90;;;;;;5007708;28;20210;-86
2022/04/14 12:16:51;;;;;;;11.80;8.93;;;20.30;99.90;;;;;;5014258;28;20211;-87
2022/04/14 12:19:18;;;;;;;11.40;9.73;;;20.30;99.90;;;;;;5019120;28;20205;-86
2022/04/14 12:21:59;;;;;;;9.37;8.10;;;20.40;99.90;;;;;;4998320;28;20227;-85
2022/04/14 12:24:28;;;;;;;14.43;8.03;;;20.50;99.90;;;;;;5010441;28;20232;-85
2022/04/14 12:26:55;;;;;;;11.13;7.37;;;20.60;99.90;;;;;;4999034;28;20218;-86
2022/04/14 12:29:24;;;;;;;8.77;7.00;;;20.80;99.90;;;;;;5000161;28;20243;-86
2022/04/14 12:31:55;;;;;;;13.07;7.40;;;21.20;99.90;;;;;;5000912;28;20186;-86
2022/04/14 12:34:23;;;;;;;9.90;6.87;;;21.60;99.90;;;;;;5024739;28;20241;-85
2022/04/14 12:37:08;;;;;;;9.70;6.63;;;22.20;99.90;;;;;;4999264;28;20649;-88